Terminal Aerodrome Forecast
Issued by NWS

Current Version | Previous Version | Text Only | Print | Product List | Glossary On
Versions: 1 2 3 4 5 6 7 8 9 10 11 12 13 14 15 16 17 18 19 20 21 22 23 24 25 26 27 28 29
000
FTUS46 KSEW 021300 AAA
TAFSEA
TAF AMD
KSEA 021310Z 0213/0318 20009KT P6SM BKN008 OVC012
      TEMPO 0213/0216 SCT008 OVC014
     FM021600 20009KT P6SM -SHRA OVC015
     FM022000 21008KT P6SM -SHRA OVC023=

USA.gov is the U.S. government's official web portal to all federal, state and local government web resources and services.